Terminal Aerodrome Forecast
Issued by NWS Portland, OR

Home | Current Version | Previous Version | Text Only | Print | Product List | Glossary On
Versions: 1 2 3 4 5 6 7 8 9 10 11 12 13 14 15 16 17 18 19 20 21 22 23 24 25 26 27 28 29 30 31 32 33 34 35 36 37
000
FTUS46 KPQR 041131
TAFAST
TAF
KAST 041131Z 0412/0512 32008KT P6SM SCT022 OVC050
      TEMPO 0412/0415 BKN022 OVC050
     FM041800 35012G20KT P6SM VCSH SCT025 BKN060
     FM042200 34015G25KT P6SM VCSH SCT030 BKN070
     FM050300 33012KT P6SM BKN022 OVC060
     FM050600 33008KT P6SM SCT020 OVC050=

USA.gov is the U.S. government's official web portal to all federal, state and local government web resources and services.